sensor_id;sensor_type;location;lat;lon;timestamp;temperature;humidity
43627;DHT22;29217;52.586;13.442;2023-06-22T00:01:09;18.80;99.90
43627;DHT22;29217;52.586;13.442;2023-06-22T00:03:35;18.80;99.90
43627;DHT22;29217;52.586;13.442;2023-06-22T00:06:00;18.70;99.90
43627;DHT22;29217;52.586;13.442;2023-06-22T00:08:26;18.80;99.90
43627;DHT22;29217;52.586;13.442;2023-06-22T00:10:51;18.80;99.90
43627;DHT22;29217;52.586;13.442;2023-06-22T00:13:17;18.80;99.90
43627;DHT22;29217;52.586;13.442;2023-06-22T00:15:43;18.70;99.90
43627;DHT22;29217;52.586;13.442;2023-06-22T00:18:10;18.70;99.90
43627;DHT22;29217;52.586;13.442;2023-06-22T00:20:36;18.60;99.90
43627;DHT22;29217;52.586;13.442;2023-06-22T00:23:03;18.60;99.90
43627;DHT22;29217;52.586;13.442;2023-06-22T00:25:37;18.60;99.90
43627;DHT22;29217;52.586;13.442;2023-06-22T00:28:04;18.50;99.90
43627;DHT22;29217;52.586;13.442;2023-06-22T00:30:31;18.50;99.90
43627;DHT22;29217;52.586;13.442;2023-06-22T00:32:57;18.40;99.90
43627;DHT22;29217;52.586;13.442;2023-06-22T00:35:24;18.40;99.90
43627;DHT22;29217;52.586;13.442;2023-06-22T00:37:54;18.40;99.90
43627;DHT22;29217;52.586;13.442;2023-06-22T00:40:29;18.50;99.90
43627;DHT22;29217;52.586;13.442;2023-06-22T00:42:54;18.40;99.90
43627;DHT22;29217;52.586;13.442;2023-06-22T00:45:21;18.40;99.90
43627;DHT22;29217;52.586;13.442;2023-06-22T00:47:52;18.40;99.90
43627;DHT22;29217;52.586;13.442;2023-06-22T00:50:20;18.40;99.90
43627;DHT22;29217;52.586;13.442;2023-06-22T00:52:49;18.30;99.90
43627;DHT22;29217;52.586;13.442;2023-06-22T00:55:16;18.30;99.90
43627;DHT22;29217;52.586;13.442;2023-06-22T00:57:45;18.30;99.90
43627;DHT22;29217;52.586;13.442;2023-06-22T01:00:11;18.20;99.90
43627;DHT22;29217;52.586;13.442;2023-06-22T01:02:45;18.20;99.90
43627;DHT22;29217;52.586;13.442;2023-06-22T01:05:14;18.20;99.90
43627;DHT22;29217;52.586;13.442;2023-06-22T01:18:36;18.00;99.90
43627;DHT22;29217;52.586;13.442;2023-06-22T01:21:04;17.90;99.90
43627;DHT22;29217;52.586;13.442;2023-06-22T01:26:21;17.90;99.90
43627;DHT22;29217;52.586;13.442;2023-06-22T01:28:52;17.80;99.90
43627;DHT22;29217;52.586;13.442;2023-06-22T01:31:21;17.80;99.90
43627;DHT22;29217;52.586;13.442;2023-06-22T01:33:51;17.80;99.90
43627;DHT22;29217;52.586;13.442;2023-06-22T01:36:18;17.70;99.90
43627;DHT22;29217;52.586;13.442;2023-06-22T01:38:46;17.70;99.90
43627;DHT22;29217;52.586;13.442;2023-06-22T01:41:12;17.70;99.90
43627;DHT22;29217;52.586;13.442;2023-06-22T01:43:38;17.60;99.90
43627;DHT22;29217;52.586;13.442;2023-06-22T01:46:05;17.40;99.90
43627;DHT22;29217;52.586;13.442;2023-06-22T01:48:32;17.20;99.90
43627;DHT22;29217;52.586;13.442;2023-06-22T01:50:58;17.10;99.90
43627;DHT22;29217;52.586;13.442;2023-06-22T01:53:24;17.10;99.90
43627;DHT22;29217;52.586;13.442;2023-06-22T01:55:50;17.20;99.90
43627;DHT22;29217;52.586;13.442;2023-06-22T01:58:16;17.20;99.90
43627;DHT22;29217;52.586;13.442;2023-06-22T02:00:50;17.30;99.90
43627;DHT22;29217;52.586;13.442;2023-06-22T02:03:21;17.20;99.90
43627;DHT22;29217;52.586;13.442;2023-06-22T02:05:51;17.20;99.90
43627;DHT22;29217;52.586;13.442;2023-06-22T02:08:27;17.20;99.90
43627;DHT22;29217;52.586;13.442;2023-06-22T02:10:54;17.20;99.90
43627;DHT22;29217;52.586;13.442;2023-06-22T02:13:23;17.20;99.90
43627;DHT22;29217;52.586;13.442;2023-06-22T02:15:49;17.20;99.90
43627;DHT22;29217;52.586;13.442;2023-06-22T02:18:15;17.20;99.90
43627;DHT22;29217;52.586;13.442;2023-06-22T02:20:41;17.10;99.90
43627;DHT22;29217;52.586;13.442;2023-06-22T02:23:07;16.90;99.90
43627;DHT22;29217;52.586;13.442;2023-06-22T02:25:33;17.00;99.90
43627;DHT22;29217;52.586;13.442;2023-06-22T02:27:59;17.00;99.90
43627;DHT22;29217;52.586;13.442;2023-06-22T02:30:24;17.10;99.90
43627;DHT22;29217;52.586;13.442;2023-06-22T02:32:50;17.00;99.90
43627;DHT22;29217;52.586;13.442;2023-06-22T02:35:28;17.10;99.90
43627;DHT22;29217;52.586;13.442;2023-06-22T02:38:00;17.10;99.90
43627;DHT22;29217;52.586;13.442;2023-06-22T02:40:26;17.20;99.90
43627;DHT22;29217;52.586;13.442;2023-06-22T02:42:52;17.20;99.90
43627;DHT22;29217;52.586;13.442;2023-06-22T02:45:17;17.20;99.90
43627;DHT22;29217;52.586;13.442;2023-06-22T02:47:43;17.20;99.90
43627;DHT22;29217;52.586;13.442;2023-06-22T02:50:09;17.30;99.90
43627;DHT22;29217;52.586;13.442;2023-06-22T02:52:35;17.30;99.90
43627;DHT22;29217;52.586;13.442;2023-06-22T02:55:00;17.30;99.90
43627;DHT22;29217;52.586;13.442;2023-06-22T02:57:26;17.40;99.90
43627;DHT22;29217;52.586;13.442;2023-06-22T02:59:52;17.40;99.90
43627;DHT22;29217;52.586;13.442;2023-06-22T03:02:17;17.40;99.90
43627;DHT22;29217;52.586;13.442;2023-06-22T03:04:46;17.40;99.90
43627;DHT22;29217;52.586;13.442;2023-06-22T03:07:14;17.40;99.90
43627;DHT22;29217;52.586;13.442;2023-06-22T03:09:40;17.40;99.90
43627;DHT22;29217;52.586;13.442;2023-06-22T03:12:08;17.40;99.90
43627;DHT22;29217;52.586;13.442;2023-06-22T03:14:34;17.40;99.90
43627;DHT22;29217;52.586;13.442;2023-06-22T03:16:59;17.50;99.90
43627;DHT22;29217;52.586;13.442;2023-06-22T03:19:28;17.50;99.90
43627;DHT22;29217;52.586;13.442;2023-06-22T03:21:55;17.50;99.90
43627;DHT22;29217;52.586;13.442;2023-06-22T03:24:20;17.50;99.90
43627;DHT22;29217;52.586;13.442;2023-06-22T03:26:46;17.50;99.90
43627;DHT22;29217;52.586;13.442;2023-06-22T03:29:12;17.50;99.90
43627;DHT22;29217;52.586;13.442;2023-06-22T03:31:37;17.50;99.90
43627;DHT22;29217;52.586;13.442;2023-06-22T03:34:03;17.50;99.90
43627;DHT22;29217;52.586;13.442;2023-06-22T03:36:29;17.50;99.90
43627;DHT22;29217;52.586;13.442;2023-06-22T03:38:55;17.50;99.90
43627;DHT22;29217;52.586;13.442;2023-06-22T03:41:20;17.50;99.90
43627;DHT22;29217;52.586;13.442;2023-06-22T03:43:46;17.50;99.90
43627;DHT22;29217;52.586;13.442;2023-06-22T03:46:12;17.60;99.90
43627;DHT22;29217;52.586;13.442;2023-06-22T03:48:38;17.60;99.90
43627;DHT22;29217;52.586;13.442;2023-06-22T03:51:03;17.60;99.90
43627;DHT22;29217;52.586;13.442;2023-06-22T03:53:29;17.70;99.90
43627;DHT22;29217;52.586;13.442;2023-06-22T03:55:55;17.70;99.90
43627;DHT22;29217;52.586;13.442;2023-06-22T03:58:21;17.80;99.90
43627;DHT22;29217;52.586;13.442;2023-06-22T04:00:48;17.90;99.90
43627;DHT22;29217;52.586;13.442;2023-06-22T04:03:14;17.90;99.90
43627;DHT22;29217;52.586;13.442;2023-06-22T04:05:40;17.90;99.90
43627;DHT22;29217;52.586;13.442;2023-06-22T04:08:06;18.00;99.90
43627;DHT22;29217;52.586;13.442;2023-06-22T04:10:32;18.10;99.90
43627;DHT22;29217;52.586;13.442;2023-06-22T04:12:58;18.10;99.90
43627;DHT22;29217;52.586;13.442;2023-06-22T04:15:23;18.10;99.90
43627;DHT22;29217;52.586;13.442;2023-06-22T04:17:49;18.20;99.90
43627;DHT22;29217;52.586;13.442;2023-06-22T04:20:14;18.20;99.90
43627;DHT22;29217;52.586;13.442;2023-06-22T04:22:40;18.30;99.90
43627;DHT22;29217;52.586;13.442;2023-06-22T04:25:06;18.40;99.90
43627;DHT22;29217;52.586;13.442;2023-06-22T04:27:35;18.40;99.90
43627;DHT22;29217;52.586;13.442;2023-06-22T04:30:03;18.30;99.90
43627;DHT22;29217;52.586;13.442;2023-06-22T04:32:29;18.30;99.90
43627;DHT22;29217;52.586;13.442;2023-06-22T04:34:55;18.40;99.90
43627;DHT22;29217;52.586;13.442;2023-06-22T04:37:20;18.50;99.90
43627;DHT22;29217;52.586;13.442;2023-06-22T04:39:49;18.50;99.90
43627;DHT22;29217;52.586;13.442;2023-06-22T04:42:14;18.60;99.90
43627;DHT22;29217;52.586;13.442;2023-06-22T04:44:40;18.70;99.90
43627;DHT22;29217;52.586;13.442;2023-06-22T04:47:07;18.70;99.90
43627;DHT22;29217;52.586;13.442;2023-06-22T04:49:34;18.80;99.90
43627;DHT22;29217;52.586;13.442;2023-06-22T04:52:06;18.90;99.90
43627;DHT22;29217;52.586;13.442;2023-06-22T04:54:33;18.90;99.90
43627;DHT22;29217;52.586;13.442;2023-06-22T04:57:04;19.00;99.90
43627;DHT22;29217;52.586;13.442;2023-06-22T04:59:31;19.00;99.90
43627;DHT22;29217;52.586;13.442;2023-06-22T05:01:58;19.10;99.90
43627;DHT22;29217;52.586;13.442;2023-06-22T05:04:25;19.40;99.90
43627;DHT22;29217;52.586;13.442;2023-06-22T05:06:51;19.80;99.90
43627;DHT22;29217;52.586;13.442;2023-06-22T05:09:17;20.10;99.90
43627;DHT22;29217;52.586;13.442;2023-06-22T05:11:44;20.10;99.90
43627;DHT22;29217;52.586;13.442;2023-06-22T05:14:10;20.20;99.90
43627;DHT22;29217;52.586;13.442;2023-06-22T05:16:36;20.20;99.90
43627;DHT22;29217;52.586;13.442;2023-06-22T05:19:02;20.30;99.90
43627;DHT22;29217;52.586;13.442;2023-06-22T05:21:29;20.30;99.90
43627;DHT22;29217;52.586;13.442;2023-06-22T05:23:56;20.40;99.90
43627;DHT22;29217;52.586;13.442;2023-06-22T05:26:26;20.50;99.90
43627;DHT22;29217;52.586;13.442;2023-06-22T05:28:52;20.60;99.90
43627;DHT22;29217;52.586;13.442;2023-06-22T05:31:18;20.60;99.90
43627;DHT22;29217;52.586;13.442;2023-06-22T05:33:48;20.70;99.90
43627;DHT22;29217;52.586;13.442;2023-06-22T05:36:14;20.70;99.90
43627;DHT22;29217;52.586;13.442;2023-06-22T05:38:41;20.70;99.90
43627;DHT22;29217;52.586;13.442;2023-06-22T05:41:07;20.70;99.90
43627;DHT22;29217;52.586;13.442;2023-06-22T05:43:33;20.80;99.90
43627;DHT22;29217;52.586;13.442;2023-06-22T05:46:00;20.80;99.90
43627;DHT22;29217;52.586;13.442;2023-06-22T05:48:26;20.90;99.90
43627;DHT22;29217;52.586;13.442;2023-06-22T05:50:52;20.90;99.90
43627;DHT22;29217;52.586;13.442;2023-06-22T05:53:18;21.00;99.90
43627;DHT22;29217;52.586;13.442;2023-06-22T05:55:44;21.10;99.90
43627;DHT22;29217;52.586;13.442;2023-06-22T05:58:10;21.20;99.90
43627;DHT22;29217;52.586;13.442;2023-06-22T06:00:36;21.30;99.90
43627;DHT22;29217;52.586;13.442;2023-06-22T06:03:01;21.40;99.90
43627;DHT22;29217;52.586;13.442;2023-06-22T06:05:31;21.50;99.90
43627;DHT22;29217;52.586;13.442;2023-06-22T06:07:58;21.60;99.90
43627;DHT22;29217;52.586;13.442;2023-06-22T06:10:23;21.70;99.90
43627;DHT22;29217;52.586;13.442;2023-06-22T06:12:49;21.70;99.90
43627;DHT22;29217;52.586;13.442;2023-06-22T06:15:15;21.70;99.90
43627;DHT22;29217;52.586;13.442;2023-06-22T06:17:50;21.70;99.90
43627;DHT22;29217;52.586;13.442;2023-06-22T06:20:19;21.80;99.90
43627;DHT22;29217;52.586;13.442;2023-06-22T06:22:45;21.90;99.90
43627;DHT22;29217;52.586;13.442;2023-06-22T06:25:11;21.90;99.90
43627;DHT22;29217;52.586;13.442;2023-06-22T06:27:45;22.00;99.90
43627;DHT22;29217;52.586;13.442;2023-06-22T06:30:11;22.10;99.90
43627;DHT22;29217;52.586;13.442;2023-06-22T06:32:37;22.10;99.90
43627;DHT22;29217;52.586;13.442;2023-06-22T06:35:05;22.20;99.90
43627;DHT22;29217;52.586;13.442;2023-06-22T06:37:31;22.30;99.90
43627;DHT22;29217;52.586;13.442;2023-06-22T06:39:57;22.30;99.90
43627;DHT22;29217;52.586;13.442;2023-06-22T06:42:23;22.40;99.90
43627;DHT22;29217;52.586;13.442;2023-06-22T06:44:49;22.40;99.90
43627;DHT22;29217;52.586;13.442;2023-06-22T06:47:15;22.40;99.90
43627;DHT22;29217;52.586;13.442;2023-06-22T06:49:42;22.50;99.90
43627;DHT22;29217;52.586;13.442;2023-06-22T06:52:08;22.50;99.90
43627;DHT22;29217;52.586;13.442;2023-06-22T06:54:33;22.60;99.90
43627;DHT22;29217;52.586;13.442;2023-06-22T06:56:59;22.60;99.90
43627;DHT22;29217;52.586;13.442;2023-06-22T06:59:25;22.70;99.90
43627;DHT22;29217;52.586;13.442;2023-06-22T07:01:51;22.70;99.90
43627;DHT22;29217;52.586;13.442;2023-06-22T07:04:16;22.80;99.90
43627;DHT22;29217;52.586;13.442;2023-06-22T07:06:42;22.90;99.90
43627;DHT22;29217;52.586;13.442;2023-06-22T07:09:08;22.90;99.90
43627;DHT22;29217;52.586;13.442;2023-06-22T07:11:34;23.00;99.90
43627;DHT22;29217;52.586;13.442;2023-06-22T07:14:01;23.10;99.90
43627;DHT22;29217;52.586;13.442;2023-06-22T07:16:26;23.20;99.90
43627;DHT22;29217;52.586;13.442;2023-06-22T07:18:54;23.30;99.90
43627;DHT22;29217;52.586;13.442;2023-06-22T07:21:19;23.50;99.90
43627;DHT22;29217;52.586;13.442;2023-06-22T07:23:45;23.60;99.90
43627;DHT22;29217;52.586;13.442;2023-06-22T07:26:10;23.70;99.90
43627;DHT22;29217;52.586;13.442;2023-06-22T07:28:38;23.60;99.90
43627;DHT22;29217;52.586;13.442;2023-06-22T07:31:06;23.60;99.90
43627;DHT22;29217;52.586;13.442;2023-06-22T07:33:31;23.70;99.90
43627;DHT22;29217;52.586;13.442;2023-06-22T07:35:57;23.70;99.90
43627;DHT22;29217;52.586;13.442;2023-06-22T07:38:22;23.70;99.90
43627;DHT22;29217;52.586;13.442;2023-06-22T07:40:48;23.80;99.90
43627;DHT22;29217;52.586;13.442;2023-06-22T07:43:14;23.80;99.90
43627;DHT22;29217;52.586;13.442;2023-06-22T07:45:39;23.90;99.90
43627;DHT22;29217;52.586;13.442;2023-06-22T07:48:07;23.90;99.90
43627;DHT22;29217;52.586;13.442;2023-06-22T07:50:32;24.00;99.90
43627;DHT22;29217;52.586;13.442;2023-06-22T07:52:58;23.90;99.90
43627;DHT22;29217;52.586;13.442;2023-06-22T07:55:24;24.10;99.90
43627;DHT22;29217;52.586;13.442;2023-06-22T07:57:49;24.20;99.90
43627;DHT22;29217;52.586;13.442;2023-06-22T08:00:17;24.30;99.90
43627;DHT22;29217;52.586;13.442;2023-06-22T08:02:45;24.40;99.90
43627;DHT22;29217;52.586;13.442;2023-06-22T08:05:11;24.40;99.90
43627;DHT22;29217;52.586;13.442;2023-06-22T08:07:38;24.50;99.90
43627;DHT22;29217;52.586;13.442;2023-06-22T08:10:08;24.60;99.90
43627;DHT22;29217;52.586;13.442;2023-06-22T08:12:35;24.60;99.90
43627;DHT22;29217;52.586;13.442;2023-06-22T08:15:01;24.60;99.90
43627;DHT22;29217;52.586;13.442;2023-06-22T08:17:26;24.70;99.90
43627;DHT22;29217;52.586;13.442;2023-06-22T08:19:52;24.70;99.90
43627;DHT22;29217;52.586;13.442;2023-06-22T08:22:17;24.80;99.90
43627;DHT22;29217;52.586;13.442;2023-06-22T08:24:44;25.00;99.90
43627;DHT22;29217;52.586;13.442;2023-06-22T08:27:10;25.00;99.90
43627;DHT22;29217;52.586;13.442;2023-06-22T08:29:40;24.90;99.90
43627;DHT22;29217;52.586;13.442;2023-06-22T08:32:09;24.80;99.90
43627;DHT22;29217;52.586;13.442;2023-06-22T08:34:34;24.80;99.90
43627;DHT22;29217;52.586;13.442;2023-06-22T08:37:01;24.60;99.90
43627;DHT22;29217;52.586;13.442;2023-06-22T08:39:26;24.60;99.90
43627;DHT22;29217;52.586;13.442;2023-06-22T08:41:53;24.60;99.90
43627;DHT22;29217;52.586;13.442;2023-06-22T08:44:19;24.60;99.90
43627;DHT22;29217;52.586;13.442;2023-06-22T08:46:45;24.60;99.90
43627;DHT22;29217;52.586;13.442;2023-06-22T08:49:11;24.60;99.90
43627;DHT22;29217;52.586;13.442;2023-06-22T08:51:36;24.70;99.90
43627;DHT22;29217;52.586;13.442;2023-06-22T08:54:02;24.70;99.90
43627;DHT22;29217;52.586;13.442;2023-06-22T08:56:28;24.70;99.90
43627;DHT22;29217;52.586;13.442;2023-06-22T08:58:53;24.70;99.90
43627;DHT22;29217;52.586;13.442;2023-06-22T09:01:19;24.70;99.90
43627;DHT22;29217;52.586;13.442;2023-06-22T09:03:45;24.70;99.90
43627;DHT22;29217;52.586;13.442;2023-06-22T09:06:22;24.70;99.90
43627;DHT22;29217;52.586;13.442;2023-06-22T09:08:47;24.70;99.90
43627;DHT22;29217;52.586;13.442;2023-06-22T09:11:13;24.70;99.90
43627;DHT22;29217;52.586;13.442;2023-06-22T09:13:39;24.70;99.90
43627;DHT22;29217;52.586;13.442;2023-06-22T09:16:05;24.80;99.90
43627;DHT22;29217;52.586;13.442;2023-06-22T09:18:30;24.90;99.90
43627;DHT22;29217;52.586;13.442;2023-06-22T09:20:56;25.00;99.90
43627;DHT22;29217;52.586;13.442;2023-06-22T09:23:22;25.10;99.90
43627;DHT22;29217;52.586;13.442;2023-06-22T09:25:47;25.30;99.90
43627;DHT22;29217;52.586;13.442;2023-06-22T09:28:14;25.50;99.90
43627;DHT22;29217;52.586;13.442;2023-06-22T09:30:39;25.60;99.90
43627;DHT22;29217;52.586;13.442;2023-06-22T09:33:05;25.70;99.90
43627;DHT22;29217;52.586;13.442;2023-06-22T09:35:30;25.70;99.90
43627;DHT22;29217;52.586;13.442;2023-06-22T09:37:56;25.70;99.90
43627;DHT22;29217;52.586;13.442;2023-06-22T09:40:22;25.70;99.90
43627;DHT22;29217;52.586;13.442;2023-06-22T09:42:47;25.70;99.90
43627;DHT22;29217;52.586;13.442;2023-06-22T09:45:13;25.70;99.90
43627;DHT22;29217;52.586;13.442;2023-06-22T09:47:38;25.90;99.90
43627;DHT22;29217;52.586;13.442;2023-06-22T09:50:05;26.00;99.90
43627;DHT22;29217;52.586;13.442;2023-06-22T09:52:31;26.10;99.90
43627;DHT22;29217;52.586;13.442;2023-06-22T09:54:56;26.20;99.90
43627;DHT22;29217;52.586;13.442;2023-06-22T09:57:22;26.30;99.90
43627;DHT22;29217;52.586;13.442;2023-06-22T09:59:48;26.50;99.90
43627;DHT22;29217;52.586;13.442;2023-06-22T10:02:13;26.60;99.90
43627;DHT22;29217;52.586;13.442;2023-06-22T10:04:39;26.70;99.90
43627;DHT22;29217;52.586;13.442;2023-06-22T10:07:05;26.70;99.90
43627;DHT22;29217;52.586;13.442;2023-06-22T10:09:31;26.80;99.90
43627;DHT22;29217;52.586;13.442;2023-06-22T10:11:57;26.90;99.90
43627;DHT22;29217;52.586;13.442;2023-06-22T10:14:23;27.10;99.90
43627;DHT22;29217;52.586;13.442;2023-06-22T10:16:50;27.10;99.90
43627;DHT22;29217;52.586;13.442;2023-06-22T10:19:16;27.00;99.90
43627;DHT22;29217;52.586;13.442;2023-06-22T10:21:42;27.10;99.90
43627;DHT22;29217;52.586;13.442;2023-06-22T10:24:07;27.20;99.90
43627;DHT22;29217;52.586;13.442;2023-06-22T10:26:34;27.30;99.90
43627;DHT22;29217;52.586;13.442;2023-06-22T10:29:00;27.30;99.90
43627;DHT22;29217;52.586;13.442;2023-06-22T10:31:26;27.20;99.90
43627;DHT22;29217;52.586;13.442;2023-06-22T10:33:53;27.20;99.90
43627;DHT22;29217;52.586;13.442;2023-06-22T10:36:19;27.20;99.90
43627;DHT22;29217;52.586;13.442;2023-06-22T10:38:45;27.30;99.90
43627;DHT22;29217;52.586;13.442;2023-06-22T10:41:12;27.40;99.90
43627;DHT22;29217;52.586;13.442;2023-06-22T10:43:38;27.30;99.90
43627;DHT22;29217;52.586;13.442;2023-06-22T10:46:03;27.30;99.90
43627;DHT22;29217;52.586;13.442;2023-06-22T10:48:29;27.30;99.90
43627;DHT22;29217;52.586;13.442;2023-06-22T10:50:55;27.30;99.90
43627;DHT22;29217;52.586;13.442;2023-06-22T10:53:21;27.40;99.90
43627;DHT22;29217;52.586;13.442;2023-06-22T10:55:47;27.40;99.90
43627;DHT22;29217;52.586;13.442;2023-06-22T10:58:13;27.40;99.90
43627;DHT22;29217;52.586;13.442;2023-06-22T11:00:38;27.50;99.90
43627;DHT22;29217;52.586;13.442;2023-06-22T11:03:04;27.70;99.90
43627;DHT22;29217;52.586;13.442;2023-06-22T11:05:30;27.80;99.90
43627;DHT22;29217;52.586;13.442;2023-06-22T11:07:55;27.80;99.90
43627;DHT22;29217;52.586;13.442;2023-06-22T11:10:21;27.70;99.90
43627;DHT22;29217;52.586;13.442;2023-06-22T11:12:46;27.40;99.90
43627;DHT22;29217;52.586;13.442;2023-06-22T11:15:12;27.20;99.90
43627;DHT22;29217;52.586;13.442;2023-06-22T11:17:38;27.30;99.90
43627;DHT22;29217;52.586;13.442;2023-06-22T11:20:04;27.50;99.90
43627;DHT22;29217;52.586;13.442;2023-06-22T11:22:36;27.60;99.90
43627;DHT22;29217;52.586;13.442;2023-06-22T11:25:02;27.70;99.90
43627;DHT22;29217;52.586;13.442;2023-06-22T11:27:28;27.80;99.90
43627;DHT22;29217;52.586;13.442;2023-06-22T11:29:53;28.10;99.90
43627;DHT22;29217;52.586;13.442;2023-06-22T11:32:19;28.20;99.90
43627;DHT22;29217;52.586;13.442;2023-06-22T11:34:44;28.40;99.90
43627;DHT22;29217;52.586;13.442;2023-06-22T11:37:10;28.60;99.90
43627;DHT22;29217;52.586;13.442;2023-06-22T11:39:35;28.70;99.90
43627;DHT22;29217;52.586;13.442;2023-06-22T11:42:01;29.00;99.90
43627;DHT22;29217;52.586;13.442;2023-06-22T11:44:26;29.10;99.90
43627;DHT22;29217;52.586;13.442;2023-06-22T11:46:52;29.30;99.90
43627;DHT22;29217;52.586;13.442;2023-06-22T11:49:18;29.80;99.90
43627;DHT22;29217;52.586;13.442;2023-06-22T11:51:43;29.80;99.90
43627;DHT22;29217;52.586;13.442;2023-06-22T11:54:09;29.80;99.90
43627;DHT22;29217;52.586;13.442;2023-06-22T11:56:34;29.80;99.90
43627;DHT22;29217;52.586;13.442;2023-06-22T11:59:00;29.70;99.90
43627;DHT22;29217;52.586;13.442;2023-06-22T12:01:25;29.70;99.90
43627;DHT22;29217;52.586;13.442;2023-06-22T12:03:51;29.70;99.90
43627;DHT22;29217;52.586;13.442;2023-06-22T12:06:17;29.70;99.90
43627;DHT22;29217;52.586;13.442;2023-06-22T12:08:43;29.60;99.90
43627;DHT22;29217;52.586;13.442;2023-06-22T12:11:08;29.90;99.90
43627;DHT22;29217;52.586;13.442;2023-06-22T12:13:34;30.20;99.90
43627;DHT22;29217;52.586;13.442;2023-06-22T12:15:59;30.30;99.90
43627;DHT22;29217;52.586;13.442;2023-06-22T12:18:25;30.50;99.90
43627;DHT22;29217;52.586;13.442;2023-06-22T12:20:50;30.50;99.90
43627;DHT22;29217;52.586;13.442;2023-06-22T12:23:16;30.50;99.90
43627;DHT22;29217;52.586;13.442;2023-06-22T12:25:42;30.70;99.90
43627;DHT22;29217;52.586;13.442;2023-06-22T12:28:07;30.70;99.90
43627;DHT22;29217;52.586;13.442;2023-06-22T12:30:33;30.60;99.90
43627;DHT22;29217;52.586;13.442;2023-06-22T12:32:59;30.50;99.90
43627;DHT22;29217;52.586;13.442;2023-06-22T12:35:24;30.40;99.90
43627;DHT22;29217;52.586;13.442;2023-06-22T12:37:50;30.40;99.90
43627;DHT22;29217;52.586;13.442;2023-06-22T12:40:15;30.50;99.90
43627;DHT22;29217;52.586;13.442;2023-06-22T12:42:41;30.60;99.90
43627;DHT22;29217;52.586;13.442;2023-06-22T12:45:08;30.70;99.90
43627;DHT22;29217;52.586;13.442;2023-06-22T12:47:35;30.80;99.90
43627;DHT22;29217;52.586;13.442;2023-06-22T12:50:00;30.90;99.90
43627;DHT22;29217;52.586;13.442;2023-06-22T12:52:26;30.90;99.90
43627;DHT22;29217;52.586;13.442;2023-06-22T12:54:51;31.00;99.90
43627;DHT22;29217;52.586;13.442;2023-06-22T12:57:17;31.00;99.90
43627;DHT22;29217;52.586;13.442;2023-06-22T12:59:44;31.00;99.90
43627;DHT22;29217;52.586;13.442;2023-06-22T13:02:10;30.90;99.90
43627;DHT22;29217;52.586;13.442;2023-06-22T13:04:36;30.70;99.90
43627;DHT22;29217;52.586;13.442;2023-06-22T13:07:01;30.60;99.90
43627;DHT22;29217;52.586;13.442;2023-06-22T13:09:27;30.80;99.90
43627;DHT22;29217;52.586;13.442;2023-06-22T13:11:52;30.70;99.90
43627;DHT22;29217;52.586;13.442;2023-06-22T13:14:18;30.70;99.90
43627;DHT22;29217;52.586;13.442;2023-06-22T13:16:44;30.70;99.90
43627;DHT22;29217;52.586;13.442;2023-06-22T13:19:10;30.60;99.90
43627;DHT22;29217;52.586;13.442;2023-06-22T13:21:35;30.80;99.90
43627;DHT22;29217;52.586;13.442;2023-06-22T13:24:01;30.80;99.90
43627;DHT22;29217;52.586;13.442;2023-06-22T13:26:26;30.80;99.90
43627;DHT22;29217;52.586;13.442;2023-06-22T13:28:54;30.90;99.90
43627;DHT22;29217;52.586;13.442;2023-06-22T13:31:19;31.10;99.90
43627;DHT22;29217;52.586;13.442;2023-06-22T13:33:45;31.40;99.90
43627;DHT22;29217;52.586;13.442;2023-06-22T13:36:13;31.50;99.90
43627;DHT22;29217;52.586;13.442;2023-06-22T13:38:39;31.60;99.90
43627;DHT22;29217;52.586;13.442;2023-06-22T13:41:07;31.60;99.90
43627;DHT22;29217;52.586;13.442;2023-06-22T13:43:32;31.70;99.90
43627;DHT22;29217;52.586;13.442;2023-06-22T13:45:58;31.80;99.90
43627;DHT22;29217;52.586;13.442;2023-06-22T13:48:24;31.70;99.90
43627;DHT22;29217;52.586;13.442;2023-06-22T13:50:51;31.70;99.90
43627;DHT22;29217;52.586;13.442;2023-06-22T13:53:17;31.70;99.90
43627;DHT22;29217;52.586;13.442;2023-06-22T13:55:43;31.60;99.90
43627;DHT22;29217;52.586;13.442;2023-06-22T13:58:08;31.80;99.90
43627;DHT22;29217;52.586;13.442;2023-06-22T14:00:34;31.90;99.90
43627;DHT22;29217;52.586;13.442;2023-06-22T14:02:59;32.00;99.90
43627;DHT22;29217;52.586;13.442;2023-06-22T14:05:25;31.90;99.90
43627;DHT22;29217;52.586;13.442;2023-06-22T14:07:50;32.10;99.90
43627;DHT22;29217;52.586;13.442;2023-06-22T14:10:16;32.00;99.90
43627;DHT22;29217;52.586;13.442;2023-06-22T14:12:42;32.20;99.90
43627;DHT22;29217;52.586;13.442;2023-06-22T14:15:07;32.20;99.90
43627;DHT22;29217;52.586;13.442;2023-06-22T14:17:33;32.30;99.90
43627;DHT22;29217;52.586;13.442;2023-06-22T14:19:59;32.20;99.90
43627;DHT22;29217;52.586;13.442;2023-06-22T14:22:24;32.20;99.90
43627;DHT22;29217;52.586;13.442;2023-06-22T14:24:51;32.10;99.90
43627;DHT22;29217;52.586;13.442;2023-06-22T14:27:16;32.00;99.90
43627;DHT22;29217;52.586;13.442;2023-06-22T14:29:42;32.00;99.90
43627;DHT22;29217;52.586;13.442;2023-06-22T14:32:08;31.90;99.90
43627;DHT22;29217;52.586;13.442;2023-06-22T14:34:34;31.80;99.90
43627;DHT22;29217;52.586;13.442;2023-06-22T14:37:06;31.70;99.90
43627;DHT22;29217;52.586;13.442;2023-06-22T14:39:31;31.50;99.90
43627;DHT22;29217;52.586;13.442;2023-06-22T14:41:57;31.40;99.90
43627;DHT22;29217;52.586;13.442;2023-06-22T14:44:23;31.30;99.90
43627;DHT22;29217;52.586;13.442;2023-06-22T14:46:48;31.20;99.90
43627;DHT22;29217;52.586;13.442;2023-06-22T14:49:14;31.10;99.90
43627;DHT22;29217;52.586;13.442;2023-06-22T14:51:39;30.90;99.90
43627;DHT22;29217;52.586;13.442;2023-06-22T14:54:05;30.80;99.90
43627;DHT22;29217;52.586;13.442;2023-06-22T14:56:31;30.70;99.90
43627;DHT22;29217;52.586;13.442;2023-06-22T14:58:56;30.50;99.90
43627;DHT22;29217;52.586;13.442;2023-06-22T15:01:22;30.40;99.90
43627;DHT22;29217;52.586;13.442;2023-06-22T15:03:47;30.10;99.90
43627;DHT22;29217;52.586;13.442;2023-06-22T15:06:13;30.00;99.90
43627;DHT22;29217;52.586;13.442;2023-06-22T15:08:39;29.80;99.90
43627;DHT22;29217;52.586;13.442;2023-06-22T15:11:05;29.80;99.90
43627;DHT22;29217;52.586;13.442;2023-06-22T15:13:31;29.70;99.90
43627;DHT22;29217;52.586;13.442;2023-06-22T15:15:59;29.60;99.90
43627;DHT22;29217;52.586;13.442;2023-06-22T15:18:25;29.60;99.90
43627;DHT22;29217;52.586;13.442;2023-06-22T15:20:51;29.50;99.90
43627;DHT22;29217;52.586;13.442;2023-06-22T15:23:17;29.30;99.90